Narita International Airport
RJAA : now visible

Airfield :











YOU CAN JOIN US ON...

 
LOGIN :

Register | Disclaimer

   EN    FR    IT 

 









Legend :    VFR   Marginal VFR   IFR   Intensive IFR   Very Intensive IFR
Visi :
Ceiling :
>= 8 km
>= 3000ft
5 to 8 km
1000 to 3000 ft
1500m to 5 km
500 to 1000 ft
800 to 1500m
200 to 500 ft
< 800m
< 200 ft
Symbols :   Thunderstorms  Fog  Heavy snow  Heavy precipitations  Wind > 20 kt






- Airport Elevation : 141 ft
- IATA code : NRT


RJAA - Narita International

CURRENT METAR :
  • 180030Z 04011KT 360V060 9999 FEW015 BKN028 18/13 Q1028 NOSIG RMK 1CU015 7SC028 A3036

EXPIRED METARs :
  • 180000Z 03010KT 9999 FEW015 BKN030 18/13 Q1028 NOSIG RMK 1CU015 7SC030 A3037
  • 172330Z 03009KT 9999 FEW015 BKN030 17/13 Q1028 NOSIG
  • 172300Z 03009KT 9999 FEW015 BKN030 BKN120 17/14 Q1028 NOSIG RMK 1CU015 5SC030 7AC120 A3036
  • 172230Z 03010KT 9999 FEW020 SCT030 BKN060 16/14 Q1027 NOSIG RMK 1CU020 3SC030 6SC060 A3035
  • 172200Z 02008KT 9999 FEW020 SCT030 BKN060 16/14 Q1027 NOSIG RMK 1CU020 3SC030 7SC060 A3034

TAF TAF RJAA
Valid from the 18 at 00:00 until the 19 at 06:00 UTC


172306Z 1800/1906 05010KT 9999 FEW015 BKN030
BECMG 1812/1815 4000 -SHRA BR FEW005 BKN008
BECMG 1815/1818 13014KT
TEMPO 1815/1900 2000 SHRA BR FEW003 BKN005
BECMG 1900/1903 21012KT 8000 NSW FEW008 BKN015



MET'MAP, your aeronautical weather chart ! - Copyright ORBIFLY December 2007 - Disclaimer

ORBIFLY MET'MAP TEAM :

Programming & Development : Alexandra Zaïnal
Concept & Development : Baudouin d'Aumeries
Co-Development & Prog : Marc-Olivier Méhu
Technical & hardware support : Manuel Goepfert

Contact : metmap@orbifly.com




SOURCES & CREDITS :

   NOAA       Earth
Advisory